Time;durP1;ratioP1;P1;durP2;ratioP2;P2;SDS_P1;SDS_P2;PMS_P1;PMS_P2;Temp;Humidity;BMP_temperature;BMP_pressure;BME280_temperature;BME280_humidity;BME280_pressure;Samples;Min_cycle;Max_cycle;Signal;HPM_P1;HPM_P2
2021/10/10 00:01:13;;;;;;;2.80;2.60;;;10.90;99.90;;;;;;4860603;29;20510;-82
2021/10/10 00:04:06;;;;;;;2.80;2.60;;;10.90;99.90;;;;;;4876474;29;20049;-86
2021/10/10 00:09:56;;;;;;;2.80;2.60;;;10.80;99.90;;;;;;4878009;29;20128;-89
2021/10/10 00:12:24;;;;;;;3.08;2.88;;;10.80;99.90;;;;;;4879805;29;20052;-89
2021/10/10 00:14:54;;;;;;;2.75;2.55;;;10.80;99.90;;;;;;4847913;29;20063;-86
2021/10/10 00:17:21;;;;;;;2.80;2.60;;;10.80;99.90;;;;;;4879369;29;20405;-87
2021/10/10 00:19:48;;;;;;;2.80;2.60;;;10.80;99.90;;;;;;4877993;29;20060;-87
2021/10/10 00:22:41;;;;;;;3.25;3.05;;;10.80;99.90;;;;;;4860718;29;20450;-92
2021/10/10 00:25:08;;;;;;;2.67;2.47;;;10.80;99.90;;;;;;4860703;29;20061;-90
2021/10/10 00:27:41;;;;;;;2.80;2.60;;;10.90;99.90;;;;;;4866295;29;20038;-91
2021/10/10 00:30:10;;;;;;;2.83;2.63;;;10.80;99.90;;;;;;4880851;29;20104;-87
2021/10/10 00:32:37;;;;;;;2.70;2.50;;;10.80;99.90;;;;;;4860622;29;20371;-85
2021/10/10 00:35:05;;;;;;;2.72;2.53;;;10.80;99.90;;;;;;4860201;29;20125;-86
2021/10/10 00:37:33;;;;;;;2.65;2.45;;;10.80;99.90;;;;;;4875555;29;20526;-87
2021/10/10 00:40:00;;;;;;;3.25;3.05;;;10.90;99.90;;;;;;4879402;29;20040;-86
2021/10/10 00:42:27;;;;;;;2.80;2.60;;;10.90;99.90;;;;;;4897232;29;20052;-88
2021/10/10 00:44:55;;;;;;;2.80;2.60;;;10.90;99.90;;;;;;4884669;29;20044;-87
2021/10/10 00:47:22;;;;;;;2.60;2.40;;;10.90;99.90;;;;;;4913971;29;20041;-90
2021/10/10 00:49:49;;;;;;;2.90;2.70;;;10.90;99.90;;;;;;4916685;29;20059;-92
2021/10/10 00:52:17;;;;;;;3.00;2.80;;;10.80;99.90;;;;;;4898085;29;20121;-89
2021/10/10 00:54:47;;;;;;;2.80;2.60;;;10.80;99.90;;;;;;4915001;29;20465;-86
2021/10/10 00:57:16;;;;;;;2.72;2.53;;;10.80;99.90;;;;;;4899229;29;20048;-91
2021/10/10 00:59:45;;;;;;;2.70;2.50;;;10.80;99.90;;;;;;4917739;29;20055;-93
2021/10/10 01:02:13;;;;;;;3.10;2.90;;;10.80;99.90;;;;;;4913285;29;20071;-89
2021/10/10 01:04:59;;;;;;;2.78;2.58;;;10.80;99.90;;;;;;4883600;29;20048;-91
2021/10/10 01:07:27;;;;;;;2.80;2.60;;;10.80;99.90;;;;;;5020581;23;20056;-90
2021/10/10 01:09:54;;;;;;;3.08;2.88;;;10.80;99.90;;;;;;4900824;29;20138;-89
2021/10/10 01:12:21;;;;;;;3.00;2.80;;;10.80;99.90;;;;;;4899281;29;20379;-86
2021/10/10 01:14:51;;;;;;;2.80;2.60;;;10.70;99.90;;;;;;4899662;29;20044;-87
2021/10/10 01:17:19;;;;;;;2.80;2.60;;;10.70;99.90;;;;;;4900905;29;20102;-87
2021/10/10 01:19:53;;;;;;;3.22;2.80;;;10.70;99.90;;;;;;4888184;29;20131;-89
2021/10/10 01:22:45;;;;;;;2.70;2.50;;;10.70;99.90;;;;;;4904136;29;20047;-87
2021/10/10 01:25:39;;;;;;;2.80;2.60;;;10.70;99.90;;;;;;4904905;29;20044;-89
2021/10/10 01:28:07;;;;;;;3.38;3.08;;;10.70;99.90;;;;;;4904749;29;20392;-89
2021/10/10 01:30:35;;;;;;;2.70;2.50;;;10.70;99.90;;;;;;4888977;29;20059;-89
2021/10/10 01:33:27;;;;;;;2.60;2.40;;;10.70;99.90;;;;;;4904307;29;20084;-90
2021/10/10 01:35:55;;;;;;;2.80;2.60;;;10.70;99.90;;;;;;4904265;29;20103;-86
2021/10/10 01:41:29;;;;;;;2.70;2.50;;;10.70;99.90;;;;;;4884055;29;20049;-90
2021/10/10 01:44:15;;;;;;;3.03;2.83;;;10.70;99.90;;;;;;4870866;29;20055;-87
2021/10/10 01:46:43;;;;;;;2.80;2.60;;;10.70;99.90;;;;;;4902319;29;20128;-87
2021/10/10 01:49:11;;;;;;;3.00;2.80;;;10.80;99.90;;;;;;4886038;29;20045;-90
2021/10/10 01:51:42;;;;;;;2.70;2.50;;;10.80;99.90;;;;;;4885235;29;20052;-87
2021/10/10 01:54:14;;;;;;;2.75;2.55;;;10.80;99.90;;;;;;4884077;29;20050;-87
2021/10/10 01:56:44;;;;;;;2.95;2.65;;;10.80;99.90;;;;;;4883684;29;20555;-86
2021/10/10 01:59:12;;;;;;;3.20;3.00;;;10.70;99.90;;;;;;4883707;29;20135;-88
2021/10/10 02:01:48;;;;;;;2.72;2.53;;;10.70;99.90;;;;;;4883764;29;20048;-87
2021/10/10 02:04:15;;;;;;;2.75;2.55;;;10.60;99.90;;;;;;4867989;29;20576;-85
2021/10/10 02:06:43;;;;;;;3.65;3.05;;;10.60;99.90;;;;;;4865279;29;20053;-87
2021/10/10 02:09:10;;;;;;;2.70;2.50;;;10.60;99.90;;;;;;4865001;29;20053;-86
2021/10/10 02:11:50;;;;;;;2.80;2.60;;;10.60;99.90;;;;;;4850107;29;20048;-88
2021/10/10 02:14:56;;;;;;;6.07;4.95;;;10.70;99.90;;;;;;4864967;29;20125;-86
2021/10/10 02:17:24;;;;;;;2.78;2.58;;;10.70;99.90;;;;;;4864530;29;20116;-88
2021/10/10 02:19:52;;;;;;;2.70;2.50;;;10.70;99.90;;;;;;4864772;29;20055;-87
2021/10/10 02:22:19;;;;;;;2.90;2.70;;;10.70;99.90;;;;;;4880105;29;20053;-87
2021/10/10 02:24:47;;;;;;;2.60;2.40;;;10.60;99.90;;;;;;4864263;29;20109;-86
2021/10/10 02:27:14;;;;;;;2.80;2.60;;;10.70;99.90;;;;;;4864223;29;20144;-86
2021/10/10 02:29:41;;;;;;;2.70;2.50;;;10.70;99.90;;;;;;4878993;29;20109;-86
2021/10/10 02:32:09;;;;;;;2.70;2.50;;;10.70;99.90;;;;;;4865058;29;20458;-85
2021/10/10 02:35:02;;;;;;;2.60;2.40;;;10.70;99.90;;;;;;4863906;29;20509;-86
2021/10/10 02:37:39;;;;;;;2.90;2.70;;;10.70;99.90;;;;;;4863854;29;20405;-84
2021/10/10 02:40:11;;;;;;;2.70;2.50;;;10.70;99.90;;;;;;4878279;29;20040;-86
2021/10/10 02:42:41;;;;;;;3.10;2.85;;;10.70;99.90;;;;;;4918339;29;20047;-85
2021/10/10 02:45:09;;;;;;;2.80;2.60;;;10.80;99.90;;;;;;4901828;29;20050;-87
2021/10/10 02:47:37;;;;;;;2.70;2.50;;;10.70;99.90;;;;;;4918346;29;20050;-86
2021/10/10 02:50:13;;;;;;;2.90;2.70;;;10.70;99.90;;;;;;4882634;29;20424;-87
2021/10/10 02:52:55;;;;;;;2.70;2.50;;;10.70;99.90;;;;;;4915697;23;20043;-90
2021/10/10 02:55:47;;;;;;;3.08;2.88;;;10.70;99.90;;;;;;4920862;29;20058;-86
2021/10/10 02:58:15;;;;;;;2.70;2.50;;;10.70;99.90;;;;;;4936685;29;20126;-86
2021/10/10 03:00:44;;;;;;;2.70;2.50;;;10.70;99.90;;;;;;4904095;29;20460;-87
2021/10/10 03:03:11;;;;;;;2.60;2.40;;;10.70;99.90;;;;;;4937523;29;20055;-85
2021/10/10 03:05:39;;;;;;;2.70;2.50;;;10.70;99.90;;;;;;4896979;29;20052;-88
2021/10/10 03:08:07;;;;;;;2.80;2.60;;;10.70;99.90;;;;;;4918314;29;20146;-86
2021/10/10 03:10:37;;;;;;;2.80;2.60;;;10.70;99.90;;;;;;4886722;29;20052;-92
2021/10/10 03:25:57;;;;;;;2.90;2.70;;;10.80;99.90;;;;;;4919412;29;20559;-87
2021/10/10 03:28:24;;;;;;;4.07;3.70;;;10.80;99.90;;;;;;4886576;29;20054;-90
2021/10/10 03:30:55;;;;;;;2.85;2.65;;;10.80;99.90;;;;;;4902767;29;20080;-90
2021/10/10 03:33:31;;;;;;;2.70;2.50;;;10.80;99.90;;;;;;4919250;29;20151;-93
2021/10/10 03:35:59;;;;;;;2.80;2.60;;;10.80;99.90;;;;;;4887083;29;20567;-93
2021/10/10 03:38:26;;;;;;;2.80;2.60;;;10.70;99.90;;;;;;4888226;29;20040;-90
2021/10/10 03:40:53;;;;;;;2.70;2.50;;;10.70;99.90;;;;;;4902545;29;20448;-87
2021/10/10 03:43:21;;;;;;;2.72;2.53;;;10.70;99.90;;;;;;4902785;29;20047;-89
2021/10/10 03:46:00;;;;;;;2.90;2.70;;;10.70;99.90;;;;;;4902315;29;20465;-88
2021/10/10 03:48:30;;;;;;;3.10;2.90;;;10.80;99.90;;;;;;4917778;29;20040;-88
2021/10/10 03:50:58;;;;;;;2.75;2.55;;;10.80;99.90;;;;;;4921964;29;20128;-90
2021/10/10 03:56:19;;;;;;;2.80;2.60;;;10.80;99.90;;;;;;4890699;29;20490;-85
2021/10/10 03:58:46;;;;;;;2.80;2.60;;;10.80;99.90;;;;;;4885738;29;20547;-86
2021/10/10 04:01:21;;;;;;;3.35;3.15;;;10.80;99.90;;;;;;4901313;29;20441;-87
2021/10/10 04:03:49;;;;;;;2.70;2.50;;;10.80;99.90;;;;;;4916844;29;20402;-88
2021/10/10 04:06:22;;;;;;;2.90;2.70;;;10.80;99.90;;;;;;4899779;29;20052;-88
2021/10/10 04:09:43;;;;;;;2.80;2.60;;;10.70;99.90;;;;;;4916808;29;20131;-86
2021/10/10 04:12:25;;;;;;;2.90;2.70;;;10.70;99.90;;;;;;4885954;29;20123;-90
2021/10/10 04:14:59;;;;;;;2.70;2.50;;;10.70;99.90;;;;;;4901013;29;20066;-89
2021/10/10 04:17:30;;;;;;;2.80;2.60;;;10.70;99.90;;;;;;4899608;29;20048;-87
2021/10/10 04:20:09;;;;;;;2.90;2.70;;;10.80;99.90;;;;;;4885184;29;20076;-87
2021/10/10 04:23:05;;;;;;;2.88;2.67;;;10.80;99.90;;;;;;4885436;29;20055;-85
2021/10/10 04:25:42;;;;;;;2.80;2.60;;;10.80;99.90;;;;;;4900184;29;20218;-86
2021/10/10 04:28:13;;;;;;;3.03;2.83;;;10.80;99.90;;;;;;4900541;29;20040;-86
2021/10/10 04:30:40;;;;;;;2.90;2.70;;;10.90;99.90;;;;;;4900484;29;20140;-85
2021/10/10 04:33:10;;;;;;;2.80;2.60;;;10.80;99.90;;;;;;4900538;29;20482;-87
2021/10/10 04:35:48;;;;;;;2.83;2.63;;;10.80;99.90;;;;;;4899270;29;20448;-87
2021/10/10 04:38:40;;;;;;;3.50;3.20;;;10.80;99.90;;;;;;4899145;29;20068;-86
2021/10/10 04:41:17;;;;;;;2.80;2.60;;;10.80;99.90;;;;;;4926772;29;20051;-88
2021/10/10 04:43:44;;;;;;;2.80;2.60;;;10.80;99.90;;;;;;4918060;29;20126;-87
2021/10/10 04:46:24;;;;;;;2.80;2.60;;;10.80;99.90;;;;;;4917758;29;20071;-87
2021/10/10 04:48:51;;;;;;;2.90;2.70;;;10.70;99.90;;;;;;4902678;29;20209;-86
2021/10/10 04:51:37;;;;;;;2.80;2.60;;;10.80;99.90;;;;;;4905360;29;20060;-87
2021/10/10 04:54:04;;;;;;;2.80;2.60;;;10.80;99.90;;;;;;4901949;29;20452;-85
2021/10/10 04:56:32;;;;;;;2.80;2.60;;;10.80;99.90;;;;;;4935402;29;20048;-87
2021/10/10 04:59:26;;;;;;;3.00;2.80;;;10.70;99.90;;;;;;4935554;29;20115;-86
2021/10/10 05:02:00;;;;;;;2.80;2.60;;;10.80;99.90;;;;;;4902926;29;20090;-86
2021/10/10 05:04:27;;;;;;;2.80;2.60;;;10.90;99.90;;;;;;4918084;29;20048;-86
2021/10/10 05:06:55;;;;;;;2.70;2.50;;;10.90;99.90;;;;;;4917559;29;20134;-85
2021/10/10 05:10:15;;;;;;;2.70;2.50;;;10.90;99.90;;;;;;4918787;29;20096;-84
2021/10/10 05:12:42;;;;;;;2.70;2.50;;;10.90;99.90;;;;;;4918134;29;20048;-84
2021/10/10 05:15:13;;;;;;;2.90;2.70;;;10.90;99.90;;;;;;4918245;29;20063;-86
2021/10/10 05:17:44;;;;;;;2.80;2.60;;;10.90;99.90;;;;;;4918021;29;20048;-86
2021/10/10 05:20:43;;;;;;;2.78;2.58;;;10.80;99.90;;;;;;4936077;29;20063;-90
2021/10/10 05:23:14;;;;;;;2.78;2.58;;;10.80;99.90;;;;;;4895133;29;20051;-84
2021/10/10 05:26:00;;;;;;;3.40;3.17;;;10.90;99.90;;;;;;4934927;29;20047;-86
2021/10/10 05:28:28;;;;;;;2.90;2.70;;;10.90;99.90;;;;;;4933293;23;20054;-87
2021/10/10 05:30:55;;;;;;;2.70;2.50;;;10.90;99.90;;;;;;4903127;29;20047;-88
2021/10/10 05:33:47;;;;;;;3.78;2.95;;;10.80;99.90;;;;;;4935461;29;20134;-86
2021/10/10 05:36:15;;;;;;;2.70;2.50;;;10.90;99.90;;;;;;4902703;29;20407;-87
2021/10/10 05:39:07;;;;;;;2.80;2.60;;;10.90;99.90;;;;;;4942655;23;20207;-89
2021/10/10 05:41:35;;;;;;;2.70;2.50;;;10.90;99.90;;;;;;4895905;29;20060;-88
2021/10/10 05:44:02;;;;;;;2.70;2.50;;;10.90;99.90;;;;;;4936030;29;20043;-91
2021/10/10 05:46:30;;;;;;;2.90;2.70;;;10.90;99.90;;;;;;4900557;29;20054;-90
2021/10/10 05:48:57;;;;;;;2.95;2.75;;;10.90;99.90;;;;;;4911171;29;20052;-87
2021/10/10 05:51:25;;;;;;;2.70;2.50;;;10.90;99.90;;;;;;4902853;29;20456;-88
2021/10/10 05:53:52;;;;;;;2.90;2.70;;;10.90;99.90;;;;;;4902974;29;20051;-88
2021/10/10 06:00:39;;;;;;;2.70;2.50;;;10.90;99.90;;;;;;4935785;29;20086;-89
2021/10/10 06:13:13;;;;;;;2.90;2.70;;;10.90;99.90;;;;;;5243462;23;20051;-87
2021/10/10 06:15:41;;;;;;;2.70;2.50;;;10.90;99.90;;;;;;4922466;29;20074;-89
2021/10/10 06:18:09;;;;;;;2.70;2.50;;;10.80;99.90;;;;;;4939036;29;20118;-86
2021/10/10 06:20:42;;;;;;;2.90;2.70;;;10.80;99.90;;;;;;4906736;29;20519;-89
2021/10/10 06:23:10;;;;;;;2.80;2.60;;;10.90;99.90;;;;;;4938501;29;20522;-88
2021/10/10 06:25:37;;;;;;;2.75;2.55;;;10.90;99.90;;;;;;4921807;29;20059;-91
2021/10/10 06:28:05;;;;;;;2.75;2.55;;;10.90;99.90;;;;;;4920287;29;20449;-85
2021/10/10 06:30:36;;;;;;;2.80;2.60;;;10.90;99.90;;;;;;4921312;29;20044;-89
2021/10/10 06:33:03;;;;;;;3.80;3.50;;;10.90;99.90;;;;;;4920780;29;20126;-88
2021/10/10 06:35:30;;;;;;;2.90;2.70;;;10.90;99.90;;;;;;4919975;29;20056;-85
2021/10/10 06:37:58;;;;;;;2.80;2.60;;;10.90;99.90;;;;;;4936808;29;20044;-87
2021/10/10 06:40:25;;;;;;;2.70;2.50;;;11.00;99.90;;;;;;4918251;29;20086;-88
2021/10/10 06:42:53;;;;;;;2.88;2.67;;;11.00;99.90;;;;;;4955270;29;20406;-88
2021/10/10 07:01:22;;;;;;;4.07;3.78;;;11.00;99.90;;;;;;4936740;29;20071;-83
2021/10/10 07:03:51;;;;;;;7.88;7.22;;;11.20;99.90;;;;;;4919463;29;20055;-85
2021/10/10 07:09:40;;;;;;;6.55;6.05;;;11.30;99.90;;;;;;6064422;23;20019;-83
2021/10/10 07:12:08;;;;;;;5.38;4.97;;;11.30;99.90;;;;;;4843558;29;20450;-83
2021/10/10 07:14:35;;;;;;;3.28;3.08;;;11.40;99.90;;;;;;4860842;29;20045;-86
2021/10/10 07:17:06;;;;;;;3.53;3.22;;;11.40;99.90;;;;;;4862967;29;20046;-87
2021/10/10 07:20:24;;;;;;;2.60;2.40;;;11.40;99.90;;;;;;4788744;29;20058;-80
2021/10/10 07:25:45;;;;;;;4.10;3.80;;;11.70;99.90;;;;;;4785359;29;20047;-86
2021/10/10 07:28:14;;;;;;;3.10;2.90;;;11.70;99.90;;;;;;4770738;30;20057;-85
2021/10/10 07:30:41;;;;;;;3.17;2.97;;;11.50;99.90;;;;;;4786266;30;20063;-85
2021/10/10 07:33:09;;;;;;;2.85;2.65;;;11.40;99.90;;;;;;4786030;30;20832;-87
2021/10/10 07:35:36;;;;;;;2.63;2.42;;;11.40;99.90;;;;;;4786297;29;20462;-86
2021/10/10 07:38:07;;;;;;;2.60;2.40;;;11.40;99.90;;;;;;4786169;29;20074;-85
2021/10/10 07:40:36;;;;;;;2.80;2.60;;;11.40;99.90;;;;;;4810709;29;20055;-82
2021/10/10 07:43:04;;;;;;;2.60;2.40;;;11.40;99.90;;;;;;4822368;29;20058;-84
2021/10/10 07:45:33;;;;;;;2.70;2.50;;;11.40;99.90;;;;;;4822467;29;20057;-85
2021/10/10 07:48:03;;;;;;;2.70;2.50;;;11.40;99.90;;;;;;4822272;29;20538;-87
2021/10/10 07:50:45;;;;;;;2.85;2.65;;;11.50;99.90;;;;;;4806885;29;20115;-93
2021/10/10 07:53:13;;;;;;;2.97;2.78;;;11.40;99.90;;;;;;4822723;29;20046;-87
2021/10/10 07:55:44;;;;;;;2.60;2.40;;;11.40;99.90;;;;;;4821850;29;20053;-89
2021/10/10 07:58:11;;;;;;;2.60;2.40;;;11.50;99.90;;;;;;4876624;29;20056;-84
2021/10/10 08:00:39;;;;;;;2.75;2.55;;;11.50;99.90;;;;;;4878444;29;20037;-84
2021/10/10 08:03:14;;;;;;;2.60;2.40;;;11.50;99.90;;;;;;4865958;29;20055;-85
2021/10/10 08:05:43;;;;;;;2.60;2.40;;;11.50;99.90;;;;;;4882303;29;20517;-86
2021/10/10 08:08:11;;;;;;;2.67;2.47;;;11.50;99.90;;;;;;4883400;29;20051;-85
2021/10/10 08:10:39;;;;;;;2.85;2.65;;;11.50;99.90;;;;;;4865531;29;20058;-86
2021/10/10 08:13:07;;;;;;;2.78;2.58;;;11.50;99.90;;;;;;4897692;29;20082;-88
2021/10/10 08:15:48;;;;;;;3.20;2.78;;;11.50;99.90;;;;;;4880561;29;20048;-88
2021/10/10 08:18:16;;;;;;;3.00;2.80;;;11.60;99.90;;;;;;4853304;29;20041;-85
2021/10/10 08:20:43;;;;;;;2.60;2.40;;;11.60;99.90;;;;;;4870941;29;20045;-87
2021/10/10 08:23:11;;;;;;;2.80;2.60;;;11.70;99.90;;;;;;4892769;23;20049;-85
2021/10/10 08:28:31;;;;;;;2.95;2.72;;;12.10;99.90;;;;;;4874365;29;20040;-88
2021/10/10 08:30:59;;;;;;;6.82;6.28;;;12.30;99.90;;;;;;4874271;29;20052;-89
2021/10/10 08:33:28;;;;;;;3.15;2.95;;;12.20;99.90;;;;;;4853958;29;20052;-86
2021/10/10 08:36:02;;;;;;;3.03;2.83;;;12.00;99.90;;;;;;4857486;29;20647;-88
2021/10/10 08:38:30;;;;;;;3.15;2.95;;;11.90;99.90;;;;;;4922227;23;20067;-84
2021/10/10 08:40:58;;;;;;;2.70;2.50;;;11.90;99.90;;;;;;4914291;29;20079;-84
2021/10/10 08:43:30;;;;;;;2.70;2.50;;;11.70;99.90;;;;;;4897362;29;20092;-84
2021/10/10 08:46:03;;;;;;;7.32;4.38;;;11.70;99.90;;;;;;4891711;29;20048;-89
2021/10/10 08:48:33;;;;;;;2.90;2.70;;;11.70;99.90;;;;;;4911748;29;20052;-87
2021/10/10 08:51:01;;;;;;;2.50;2.30;;;11.70;99.90;;;;;;4910126;29;20061;-87
2021/10/10 08:53:28;;;;;;;2.90;2.70;;;11.80;99.90;;;;;;4900066;29;20052;-86
2021/10/10 08:55:56;;;;;;;4.72;3.50;;;11.80;99.90;;;;;;4892450;29;20461;-85
2021/10/10 08:58:26;;;;;;;2.72;2.53;;;11.80;99.90;;;;;;4914371;29;20043;-85
2021/10/10 09:01:01;;;;;;;2.70;2.50;;;11.90;99.90;;;;;;4922147;29;20075;-84
2021/10/10 09:03:29;;;;;;;2.50;2.30;;;11.90;99.90;;;;;;4916414;29;20036;-85
2021/10/10 09:05:57;;;;;;;2.65;2.45;;;11.90;99.90;;;;;;4881623;29;20143;-84
2021/10/10 09:08:29;;;;;;;2.60;2.40;;;11.90;99.90;;;;;;4887527;29;20396;-88
2021/10/10 09:11:13;;;;;;;;;;;11.90;99.90;;;;;;4902223;29;20148;-84
2021/10/10 09:14:01;;;;;;;4.30;3.10;;;12.00;99.90;;;;;;4885387;29;20019;-85
2021/10/10 09:17:10;;;;;;;2.67;2.47;;;12.10;99.90;;;;;;4854288;29;20056;-84
2021/10/10 09:19:38;;;;;;;3.78;3.47;;;12.70;99.90;;;;;;4914764;29;20137;-87
2021/10/10 09:22:06;;;;;;;4.18;3.85;;;12.90;99.90;;;;;;4911206;29;20049;-88
2021/10/10 09:24:38;;;;;;;4.75;4.43;;;12.90;99.90;;;;;;4875080;29;20132;-89
2021/10/10 09:27:15;;;;;;;3.42;3.13;;;12.70;99.90;;;;;;4888020;29;20049;-88
2021/10/10 09:29:48;;;;;;;2.60;2.40;;;12.50;99.90;;;;;;4871292;29;20052;-83
2021/10/10 09:32:21;;;;;;;2.80;2.60;;;12.30;99.90;;;;;;4867260;29;20140;-88
2021/10/10 09:34:50;;;;;;;2.50;2.30;;;12.20;99.90;;;;;;4894859;29;20077;-84
2021/10/10 09:37:37;;;;;;;2.97;2.78;;;12.10;99.90;;;;;;4888206;29;20052;-86
2021/10/10 09:40:29;;;;;;;3.80;3.50;;;12.20;99.90;;;;;;4882544;29;20056;-87
2021/10/10 09:43:12;;;;;;;2.90;2.70;;;12.10;99.90;;;;;;4867868;29;20080;-84
2021/10/10 09:45:53;;;;;;;2.80;2.60;;;12.10;99.90;;;;;;4899824;29;20496;-85
2021/10/10 09:48:37;;;;;;;2.60;2.40;;;12.20;99.90;;;;;;4880132;29;20097;-85
2021/10/10 09:51:07;;;;;;;3.15;2.95;;;12.30;99.90;;;;;;4869258;29;20048;-87
2021/10/10 09:54:00;;;;;;;3.33;3.10;;;12.40;99.90;;;;;;4901106;29;20127;-85
2021/10/10 09:56:28;;;;;;;2.20;2.10;;;12.40;99.90;;;;;;4866482;29;20057;-89
2021/10/10 09:58:55;;;;;;;2.50;2.30;;;12.50;99.90;;;;;;4874359;29;20083;-85
2021/10/10 10:01:24;;;;;;;2.50;2.30;;;12.40;99.90;;;;;;4891312;29;20056;-85
2021/10/10 10:04:08;;;;;;;3.53;3.25;;;12.40;99.90;;;;;;4875011;29;20374;-85
2021/10/10 10:06:43;;;;;;;2.45;2.25;;;12.50;99.90;;;;;;4890449;29;20084;-85
2021/10/10 10:09:21;;;;;;;2.95;2.75;;;12.50;99.90;;;;;;4889665;29;20100;-87
2021/10/10 10:11:50;;;;;;;2.50;2.30;;;12.40;99.90;;;;;;4891730;29;20124;-87
2021/10/10 10:14:19;;;;;;;2.50;2.30;;;12.30;99.90;;;;;;4882675;29;20043;-86
2021/10/10 10:20:36;;;;;;;3.83;3.53;;;12.90;99.90;;;;;;4881322;29;20099;-84
2021/10/10 10:23:09;;;;;;;3.38;3.17;;;12.70;99.90;;;;;;4874754;29;20063;-84
2021/10/10 10:25:54;;;;;;;2.97;2.78;;;12.60;99.90;;;;;;4885234;29;20048;-92
2021/10/10 10:32:17;;;;;;;2.40;2.20;;;12.50;99.90;;;;;;4886887;29;20436;-84
2021/10/10 10:35:14;;;;;;;2.85;2.65;;;12.50;99.90;;;;;;4877400;29;20048;-91
2021/10/10 10:37:53;;;;;;;2.88;2.67;;;12.50;99.90;;;;;;4879186;29;20079;-88
2021/10/10 10:40:45;;;;;;;3.65;3.35;;;12.40;99.90;;;;;;4905665;29;20047;-87
2021/10/10 10:43:13;;;;;;;2.50;2.30;;;12.30;99.90;;;;;;4904298;29;20056;-90
2021/10/10 10:45:48;;;;;;;3.30;3.03;;;12.30;99.90;;;;;;4906981;29;20072;-85
2021/10/10 10:48:27;;;;;;;2.60;2.40;;;12.30;99.90;;;;;;4892560;29;20055;-83
2021/10/10 10:51:28;;;;;;;3.15;2.95;;;12.30;99.90;;;;;;4906086;29;20119;-91
2021/10/10 10:54:34;;;;;;;4.35;3.95;;;12.40;99.90;;;;;;4905809;29;20095;-83
2021/10/10 10:57:43;;;;;;;4.38;3.97;;;12.50;99.90;;;;;;4891698;29;20048;-89
2021/10/10 11:00:14;;;;;;;2.50;2.30;;;12.40;99.90;;;;;;4892097;29;20052;-87
2021/10/10 11:03:00;;;;;;;2.67;2.47;;;12.40;99.90;;;;;;4877833;29;20087;-87
2021/10/10 11:05:31;;;;;;;3.10;2.85;;;12.40;99.90;;;;;;4892032;29;20043;-87
2021/10/10 11:08:08;;;;;;;2.50;2.30;;;12.50;99.90;;;;;;4885613;29;20088;-86
2021/10/10 11:10:40;;;;;;;2.75;2.55;;;12.50;99.90;;;;;;4893204;29;20097;-88
2021/10/10 11:13:07;;;;;;;2.45;2.25;;;12.50;99.90;;;;;;4886309;29;20079;-90
2021/10/10 11:16:05;;;;;;;4.45;4.05;;;12.40;99.90;;;;;;4918404;29;20103;-86
2021/10/10 11:18:34;;;;;;;3.65;3.35;;;12.50;99.90;;;;;;4918921;29;20063;-90
2021/10/10 11:21:25;;;;;;;3.78;3.47;;;12.50;99.90;;;;;;4917228;29;20051;-85
2021/10/10 11:24:01;;;;;;;2.78;2.58;;;12.50;99.90;;;;;;4918372;29;20100;-86
2021/10/10 11:26:33;;;;;;;2.40;2.20;;;12.60;99.90;;;;;;4896059;29;20492;-84
2021/10/10 11:29:05;;;;;;;3.05;2.85;;;12.60;99.90;;;;;;4928589;29;20131;-85
2021/10/10 11:31:35;;;;;;;2.72;2.53;;;12.60;99.90;;;;;;4883870;29;20044;-86
2021/10/10 11:34:04;;;;;;;3.30;3.10;;;12.70;99.90;;;;;;4918333;29;20127;-91
2021/10/10 11:36:33;;;;;;;2.30;2.10;;;12.80;99.90;;;;;;4881184;29;20485;-87
2021/10/10 11:39:07;;;;;;;2.83;2.63;;;12.90;99.90;;;;;;4879208;29;20412;-85
2021/10/10 11:41:46;;;;;;;3.53;3.28;;;13.00;99.90;;;;;;4917717;29;20396;-89
2021/10/10 11:44:17;;;;;;;2.40;2.20;;;12.80;99.90;;;;;;4904794;29;20045;-87
2021/10/10 11:46:57;;;;;;;2.40;2.20;;;12.80;99.90;;;;;;4904214;29;20054;-83
2021/10/10 11:52:27;;;;;;;2.42;2.22;;;12.80;99.90;;;;;;4917803;29;20036;-87
2021/10/10 11:55:27;;;;;;;5.65;5.15;;;12.80;99.90;;;;;;4898751;29;20833;-88
2021/10/10 11:58:02;;;;;;;8.85;5.68;;;13.00;99.90;;;;;;4893349;29;20076;-87
2021/10/10 12:00:33;;;;;;;5.30;4.55;;;13.00;99.90;;;;;;4885242;29;20044;-92
2021/10/10 12:03:10;;;;;;;2.38;2.17;;;13.00;99.90;;;;;;4861399;29;20060;-92
2021/10/10 12:05:42;;;;;;;2.35;2.15;;;13.00;99.90;;;;;;4870733;29;20424;-86
2021/10/10 12:08:21;;;;;;;2.20;2.10;;;12.90;99.90;;;;;;4885216;29;20048;-94
2021/10/10 12:10:49;;;;;;;2.47;2.28;;;12.90;99.90;;;;;;4869021;29;20409;-89
2021/10/10 12:13:18;;;;;;;2.15;2.05;;;12.90;99.90;;;;;;4902806;29;20127;-94
2021/10/10 12:16:10;;;;;;;2.40;2.20;;;12.90;99.90;;;;;;4886328;29;20048;-91
2021/10/10 12:18:38;;;;;;;2.38;2.17;;;12.80;99.90;;;;;;4869179;29;20052;-94
2021/10/10 12:21:25;;;;;;;2.40;2.20;;;12.80;99.90;;;;;;4885308;29;20473;-87
2021/10/10 12:24:10;;;;;;;2.40;2.20;;;12.90;99.90;;;;;;4882892;29;20057;-84
2021/10/10 12:26:48;;;;;;;2.30;2.10;;;12.90;99.90;;;;;;4883335;29;20401;-87
2021/10/10 12:29:27;;;;;;;2.50;2.30;;;12.90;99.90;;;;;;4882573;29;20112;-90
2021/10/10 12:32:15;;;;;;;2.38;2.17;;;12.90;99.90;;;;;;4866985;29;20405;-85
2021/10/10 12:34:43;;;;;;;2.30;2.10;;;12.80;99.90;;;;;;4884105;29;20041;-92
2021/10/10 12:37:22;;;;;;;2.40;2.20;;;12.90;99.90;;;;;;4900176;29;20044;-91
2021/10/10 12:39:51;;;;;;;2.50;2.30;;;12.80;99.90;;;;;;4901059;29;20135;-89
2021/10/10 12:42:24;;;;;;;2.60;2.40;;;12.80;99.90;;;;;;4867783;29;20378;-91
2021/10/10 12:45:29;;;;;;;2.72;2.53;;;12.90;99.90;;;;;;4883069;29;20052;-90
2021/10/10 12:48:10;;;;;;;2.40;2.20;;;12.80;99.90;;;;;;4864708;29;20052;-89
2021/10/10 12:50:53;;;;;;;2.20;2.10;;;12.80;99.90;;;;;;4898423;29;20048;-88
2021/10/10 12:53:30;;;;;;;2.65;2.45;;;12.80;99.90;;;;;;4898828;29;20037;-90
2021/10/10 12:56:18;;;;;;;2.40;2.20;;;12.80;99.90;;;;;;4882281;29;20419;-87
2021/10/10 12:58:56;;;;;;;2.63;2.42;;;12.70;99.90;;;;;;4899295;29;20041;-88
2021/10/10 13:01:29;;;;;;;2.40;2.20;;;12.80;99.90;;;;;;4882079;29;20040;-84
2021/10/10 13:04:13;;;;;;;2.50;2.30;;;12.80;99.90;;;;;;4938349;23;20060;-84
2021/10/10 13:06:47;;;;;;;2.30;2.10;;;12.90;99.90;;;;;;4935128;29;20423;-89
2021/10/10 13:09:19;;;;;;;2.35;2.15;;;12.90;99.90;;;;;;4918428;29;20459;-89
2021/10/10 13:11:53;;;;;;;2.40;2.20;;;12.90;99.90;;;;;;4903211;29;20047;-87
2021/10/10 13:14:34;;;;;;;2.40;2.20;;;12.90;99.90;;;;;;4903454;29;20044;-87
2021/10/10 13:17:04;;;;;;;2.40;2.20;;;13.00;99.90;;;;;;4921226;29;20067;-91
2021/10/10 13:19:42;;;;;;;2.60;2.40;;;12.90;99.90;;;;;;4920896;29;20077;-85
2021/10/10 13:22:10;;;;;;;2.83;2.63;;;13.30;99.90;;;;;;4904786;29;20056;-85
2021/10/10 13:24:55;;;;;;;4.20;3.90;;;13.50;99.90;;;;;;4913621;29;20051;-89
2021/10/10 13:27:22;;;;;;;4.63;4.22;;;13.50;99.90;;;;;;4918042;29;20446;-87
2021/10/10 13:29:50;;;;;;;3.55;3.25;;;13.80;99.90;;;;;;4918537;29;20158;-87
2021/10/10 13:32:34;;;;;;;2.88;2.67;;;13.30;99.90;;;;;;4894564;29;20064;-89
2021/10/10 13:35:01;;;;;;;;;;;13.10;99.90;;;;;;4895102;29;20095;-90
2021/10/10 13:37:29;;;;;;;2.50;2.30;;;13.10;99.90;;;;;;4902629;23;19919;-86
2021/10/10 13:39:56;;;;;;;2.20;2.10;;;13.00;99.90;;;;;;4898602;29;20068;-85
2021/10/10 13:42:24;;;;;;;2.60;2.40;;;13.00;99.90;;;;;;4908263;29;20036;-81
2021/10/10 13:44:51;;;;;;;2.10;2.00;;;12.90;99.90;;;;;;4895175;29;20044;-85
2021/10/10 13:47:19;;;;;;;2.40;2.20;;;12.90;99.90;;;;;;4892971;29;20421;-84
2021/10/10 13:49:49;;;;;;;3.45;3.22;;;12.90;99.90;;;;;;4881549;29;20040;-84
2021/10/10 13:52:16;;;;;;;2.50;2.30;;;12.80;99.90;;;;;;4879344;29;20040;-87
2021/10/10 13:54:46;;;;;;;3.17;2.97;;;12.90;99.90;;;;;;4897450;29;20095;-82
2021/10/10 14:01:01;;;;;;;2.83;2.63;;;13.10;99.90;;;;;;5016783;23;20165;-83
2021/10/10 14:03:32;;;;;;;2.50;2.30;;;13.10;99.90;;;;;;4884655;29;20044;-85
2021/10/10 14:05:59;;;;;;;;;;;12.90;99.90;;;;;;4871308;29;20587;-83
2021/10/10 14:08:39;;;;;;;2.50;2.30;;;12.80;99.90;;;;;;4892534;29;20022;-84
2021/10/10 14:11:09;;;;;;;2.47;2.28;;;12.80;99.90;;;;;;4881654;29;20045;-85
2021/10/10 14:13:37;;;;;;;5.47;4.45;;;12.70;99.90;;;;;;4895617;29;20378;-87
2021/10/10 14:16:06;;;;;;;2.40;2.20;;;12.70;99.90;;;;;;4864552;29;20152;-85
2021/10/10 14:18:33;;;;;;;2.47;2.28;;;12.80;99.90;;;;;;4879383;29;20505;-85
2021/10/10 14:21:03;;;;;;;3.78;3.47;;;12.70;99.90;;;;;;4902388;29;20048;-83
2021/10/10 14:23:37;;;;;;;2.55;2.35;;;12.80;99.90;;;;;;4873663;29;20148;-87
2021/10/10 14:26:07;;;;;;;3.63;3.33;;;12.70;99.90;;;;;;4911770;29;20067;-88
2021/10/10 14:28:56;;;;;;;2.67;2.47;;;12.70;99.90;;;;;;4898178;29;20655;-86
2021/10/10 14:31:24;;;;;;;2.50;2.30;;;12.80;99.90;;;;;;4868133;29;20404;-86
2021/10/10 14:33:52;;;;;;;2.42;2.22;;;12.80;99.90;;;;;;4890502;29;20130;-84
2021/10/10 14:36:19;;;;;;;2.50;2.30;;;12.70;99.90;;;;;;4902385;29;20047;-85
2021/10/10 14:38:49;;;;;;;2.65;2.45;;;12.80;99.90;;;;;;4901914;29;20048;-86